Terminal Aerodrome Forecast
Issued by NWS Sioux Falls, SD

Home | Current Version | Previous Version | Text Only | Print | Product List | Glossary On
Versions: 1 2 3 4 5 6 7 8 9 10 11 12 13 14 15 16 17 18 19 20 21 22
000
FTUS43 KFSD 140526
TAFSUX
TAF
KSUX 140526Z 1406/1506 15006KT P6SM VCTS BKN070CB
     FM141100 22004KT 4SM BR BKN045
     FM141200 24004KT 3SM BR BKN015
     FM141300 24004KT 3SM BR BKN030
     FM141500 25004KT P6SM BKN070
     FM141700 24004KT P6SM SCT200
     FM142300 13005KT P6SM SCT150=

USA.gov is the U.S. government's official web portal to all federal, state and local government web resources and services.